sensor_id;sensor_type;location;lat;lon;timestamp;P1;durP1;ratioP1;P2;durP2;ratioP2
72611;SDS011;60655;52.182;4.474;2022-12-29T00:01:25;5.45;;;2.08;;
72611;SDS011;60655;52.182;4.474;2022-12-29T00:03:26;5.10;;;1.88;;
72611;SDS011;60655;52.182;4.474;2022-12-29T00:05:27;4.80;;;1.65;;
72611;SDS011;60655;52.182;4.474;2022-12-29T00:07:28;4.88;;;1.70;;
72611;SDS011;60655;52.182;4.474;2022-12-29T00:09:29;4.78;;;1.85;;
72611;SDS011;60655;52.182;4.474;2022-12-29T00:11:30;5.18;;;1.65;;
72611;SDS011;60655;52.182;4.474;2022-12-29T00:13:30;5.25;;;1.63;;
72611;SDS011;60655;52.182;4.474;2022-12-29T00:15:50;5.78;;;1.63;;
72611;SDS011;60655;52.182;4.474;2022-12-29T00:17:51;4.50;;;1.70;;
72611;SDS011;60655;52.182;4.474;2022-12-29T00:19:52;4.60;;;1.70;;
72611;SDS011;60655;52.182;4.474;2022-12-29T00:24:32;4.10;;;1.55;;
72611;SDS011;60655;52.182;4.474;2022-12-29T00:27:13;4.40;;;1.35;;
72611;SDS011;60655;52.182;4.474;2022-12-29T00:29:31;3.05;;;1.27;;
72611;SDS011;60655;52.182;4.474;2022-12-29T00:31:51;4.55;;;1.10;;
72611;SDS011;60655;52.182;4.474;2022-12-29T00:34:11;3.13;;;1.25;;
72611;SDS011;60655;52.182;4.474;2022-12-29T00:36:39;3.30;;;1.38;;
72611;SDS011;60655;52.182;4.474;2022-12-29T00:38:43;4.13;;;1.30;;
72611;SDS011;60655;52.182;4.474;2022-12-29T00:41:07;4.28;;;1.50;;
72611;SDS011;60655;52.182;4.474;2022-12-29T00:45:46;4.00;;;1.60;;
72611;SDS011;60655;52.182;4.474;2022-12-29T00:47:47;4.65;;;1.50;;
72611;SDS011;60655;52.182;4.474;2022-12-29T00:49:48;3.30;;;1.27;;
72611;SDS011;60655;52.182;4.474;2022-12-29T00:51:49;4.22;;;1.40;;
72611;SDS011;60655;52.182;4.474;2022-12-29T00:53:51;4.70;;;1.65;;
72611;SDS011;60655;52.182;4.474;2022-12-29T00:55:52;4.00;;;1.23;;
72611;SDS011;60655;52.182;4.474;2022-12-29T00:57:53;3.83;;;1.40;;
72611;SDS011;60655;52.182;4.474;2022-12-29T00:59:54;5.30;;;1.40;;
72611;SDS011;60655;52.182;4.474;2022-12-29T01:01:55;3.88;;;1.38;;
72611;SDS011;60655;52.182;4.474;2022-12-29T01:03:56;6.75;;;1.30;;
72611;SDS011;60655;52.182;4.474;2022-12-29T01:05:59;2.97;;;1.33;;
72611;SDS011;60655;52.182;4.474;2022-12-29T01:08:02;5.15;;;1.38;;
72611;SDS011;60655;52.182;4.474;2022-12-29T01:10:03;4.55;;;1.20;;
72611;SDS011;60655;52.182;4.474;2022-12-29T01:14:11;3.05;;;1.15;;
72611;SDS011;60655;52.182;4.474;2022-12-29T01:16:12;3.78;;;1.20;;
72611;SDS011;60655;52.182;4.474;2022-12-29T01:18:14;2.45;;;1.10;;
72611;SDS011;60655;52.182;4.474;2022-12-29T01:20:15;4.65;;;1.23;;
72611;SDS011;60655;52.182;4.474;2022-12-29T01:22:16;4.50;;;1.40;;
72611;SDS011;60655;52.182;4.474;2022-12-29T01:24:18;3.38;;;0.98;;
72611;SDS011;60655;52.182;4.474;2022-12-29T01:26:21;4.97;;;1.33;;
72611;SDS011;60655;52.182;4.474;2022-12-29T01:28:22;3.88;;;1.08;;
72611;SDS011;60655;52.182;4.474;2022-12-29T01:30:23;3.15;;;1.17;;
72611;SDS011;60655;52.182;4.474;2022-12-29T01:32:25;4.43;;;1.23;;
72611;SDS011;60655;52.182;4.474;2022-12-29T01:34:26;3.90;;;1.05;;
72611;SDS011;60655;52.182;4.474;2022-12-29T01:36:27;3.92;;;1.00;;
72611;SDS011;60655;52.182;4.474;2022-12-29T01:38:28;3.28;;;1.10;;
72611;SDS011;60655;52.182;4.474;2022-12-29T01:40:29;3.50;;;1.20;;
72611;SDS011;60655;52.182;4.474;2022-12-29T01:42:32;2.35;;;1.05;;
72611;SDS011;60655;52.182;4.474;2022-12-29T01:46:50;5.60;;;0.90;;
72611;SDS011;60655;52.182;4.474;2022-12-29T01:49:11;3.90;;;0.88;;
72611;SDS011;60655;52.182;4.474;2022-12-29T01:51:16;4.43;;;0.82;;
72611;SDS011;60655;52.182;4.474;2022-12-29T01:53:18;2.47;;;0.68;;
72611;SDS011;60655;52.182;4.474;2022-12-29T01:55:23;3.17;;;0.80;;
72611;SDS011;60655;52.182;4.474;2022-12-29T01:57:29;7.22;;;1.13;;
72611;SDS011;60655;52.182;4.474;2022-12-29T01:59:34;5.35;;;0.80;;
72611;SDS011;60655;52.182;4.474;2022-12-29T02:01:41;5.07;;;1.02;;
72611;SDS011;60655;52.182;4.474;2022-12-29T02:03:42;7.40;;;1.00;;
72611;SDS011;60655;52.182;4.474;2022-12-29T02:05:51;4.93;;;1.10;;
72611;SDS011;60655;52.182;4.474;2022-12-29T02:07:56;8.55;;;1.10;;
72611;SDS011;60655;52.182;4.474;2022-12-29T02:09:58;7.80;;;1.13;;
72611;SDS011;60655;52.182;4.474;2022-12-29T02:12:02;8.60;;;1.27;;
72611;SDS011;60655;52.182;4.474;2022-12-29T02:14:13;3.55;;;0.82;;
72611;SDS011;60655;52.182;4.474;2022-12-29T02:18:41;6.63;;;0.80;;
72611;SDS011;60655;52.182;4.474;2022-12-29T02:28:51;5.88;;;0.85;;
72611;SDS011;60655;52.182;4.474;2022-12-29T02:31:25;6.40;;;0.70;;
72611;SDS011;60655;52.182;4.474;2022-12-29T02:33:44;5.57;;;0.73;;
72611;SDS011;60655;52.182;4.474;2022-12-29T02:45:26;6.82;;;0.63;;
72611;SDS011;60655;52.182;4.474;2022-12-29T02:49:47;10.02;;;1.02;;
72611;SDS011;60655;52.182;4.474;2022-12-29T02:52:03;8.55;;;0.95;;
72611;SDS011;60655;52.182;4.474;2022-12-29T02:54:07;8.20;;;1.33;;
72611;SDS011;60655;52.182;4.474;2022-12-29T02:56:27;7.32;;;0.88;;
72611;SDS011;60655;52.182;4.474;2022-12-29T02:58:28;6.40;;;0.95;;
72611;SDS011;60655;52.182;4.474;2022-12-29T03:00:28;8.65;;;1.20;;
72611;SDS011;60655;52.182;4.474;2022-12-29T03:02:34;4.97;;;0.90;;
72611;SDS011;60655;52.182;4.474;2022-12-29T03:07:23;7.75;;;1.30;;
72611;SDS011;60655;52.182;4.474;2022-12-29T03:12:04;7.88;;;1.20;;
72611;SDS011;60655;52.182;4.474;2022-12-29T03:14:29;9.30;;;1.45;;
72611;SDS011;60655;52.182;4.474;2022-12-29T03:17:00;9.82;;;1.58;;
72611;SDS011;60655;52.182;4.474;2022-12-29T03:19:28;11.60;;;1.60;;
72611;SDS011;60655;52.182;4.474;2022-12-29T03:21:40;7.88;;;1.20;;
72611;SDS011;60655;52.182;4.474;2022-12-29T03:24:02;6.55;;;0.90;;
72611;SDS011;60655;52.182;4.474;2022-12-29T03:26:06;9.13;;;1.13;;
72611;SDS011;60655;52.182;4.474;2022-12-29T03:30:14;12.45;;;1.23;;
72611;SDS011;60655;52.182;4.474;2022-12-29T03:32:15;13.52;;;1.92;;
72611;SDS011;60655;52.182;4.474;2022-12-29T03:34:17;9.35;;;1.70;;
72611;SDS011;60655;52.182;4.474;2022-12-29T03:36:23;11.30;;;1.42;;
72611;SDS011;60655;52.182;4.474;2022-12-29T03:38:47;13.73;;;1.60;;
72611;SDS011;60655;52.182;4.474;2022-12-29T03:40:56;9.65;;;1.60;;
72611;SDS011;60655;52.182;4.474;2022-12-29T03:43:01;6.85;;;1.30;;
72611;SDS011;60655;52.182;4.474;2022-12-29T03:45:04;9.75;;;1.50;;
72611;SDS011;60655;52.182;4.474;2022-12-29T03:47:07;11.77;;;1.42;;
72611;SDS011;60655;52.182;4.474;2022-12-29T03:49:08;7.40;;;1.38;;
72611;SDS011;60655;52.182;4.474;2022-12-29T03:51:09;9.25;;;1.33;;
72611;SDS011;60655;52.182;4.474;2022-12-29T03:53:10;9.32;;;1.42;;
72611;SDS011;60655;52.182;4.474;2022-12-29T03:55:11;12.05;;;2.25;;
72611;SDS011;60655;52.182;4.474;2022-12-29T03:57:12;9.90;;;1.30;;
72611;SDS011;60655;52.182;4.474;2022-12-29T03:59:13;14.75;;;1.73;;
72611;SDS011;60655;52.182;4.474;2022-12-29T04:01:14;9.07;;;1.00;;
72611;SDS011;60655;52.182;4.474;2022-12-29T04:03:15;9.05;;;1.92;;
72611;SDS011;60655;52.182;4.474;2022-12-29T04:05:15;11.00;;;1.33;;
72611;SDS011;60655;52.182;4.474;2022-12-29T04:07:16;12.02;;;1.60;;
72611;SDS011;60655;52.182;4.474;2022-12-29T04:09:18;9.43;;;0.93;;
72611;SDS011;60655;52.182;4.474;2022-12-29T04:11:18;13.50;;;1.48;;
72611;SDS011;60655;52.182;4.474;2022-12-29T04:13:20;9.73;;;1.20;;
72611;SDS011;60655;52.182;4.474;2022-12-29T04:15:21;9.20;;;1.00;;
72611;SDS011;60655;52.182;4.474;2022-12-29T04:17:23;9.98;;;1.60;;
72611;SDS011;60655;52.182;4.474;2022-12-29T04:19:24;9.38;;;1.40;;
72611;SDS011;60655;52.182;4.474;2022-12-29T04:21:25;11.52;;;1.48;;
72611;SDS011;60655;52.182;4.474;2022-12-29T04:23:27;10.82;;;1.95;;
72611;SDS011;60655;52.182;4.474;2022-12-29T04:25:28;15.75;;;1.52;;
72611;SDS011;60655;52.182;4.474;2022-12-29T04:27:31;16.92;;;1.50;;
72611;SDS011;60655;52.182;4.474;2022-12-29T04:29:32;18.05;;;2.13;;
72611;SDS011;60655;52.182;4.474;2022-12-29T04:31:33;12.40;;;1.38;;
72611;SDS011;60655;52.182;4.474;2022-12-29T04:33:34;13.93;;;1.98;;
72611;SDS011;60655;52.182;4.474;2022-12-29T04:35:35;14.98;;;1.80;;
72611;SDS011;60655;52.182;4.474;2022-12-29T04:37:36;13.13;;;1.80;;
72611;SDS011;60655;52.182;4.474;2022-12-29T04:39:37;12.77;;;1.75;;
72611;SDS011;60655;52.182;4.474;2022-12-29T04:41:38;13.93;;;1.55;;
72611;SDS011;60655;52.182;4.474;2022-12-29T04:43:39;13.95;;;2.40;;
72611;SDS011;60655;52.182;4.474;2022-12-29T04:45:43;6.53;;;1.27;;
72611;SDS011;60655;52.182;4.474;2022-12-29T04:47:45;13.32;;;1.63;;
72611;SDS011;60655;52.182;4.474;2022-12-29T04:49:46;9.25;;;1.00;;
72611;SDS011;60655;52.182;4.474;2022-12-29T04:51:47;12.10;;;2.20;;
72611;SDS011;60655;52.182;4.474;2022-12-29T04:53:48;11.48;;;1.33;;
72611;SDS011;60655;52.182;4.474;2022-12-29T04:55:49;10.10;;;1.20;;
72611;SDS011;60655;52.182;4.474;2022-12-29T04:57:51;11.15;;;1.85;;
72611;SDS011;60655;52.182;4.474;2022-12-29T04:59:52;10.00;;;1.38;;
72611;SDS011;60655;52.182;4.474;2022-12-29T05:01:53;12.65;;;1.50;;
72611;SDS011;60655;52.182;4.474;2022-12-29T05:03:54;16.73;;;1.67;;
72611;SDS011;60655;52.182;4.474;2022-12-29T05:05:56;9.23;;;1.30;;
72611;SDS011;60655;52.182;4.474;2022-12-29T05:07:57;10.40;;;1.52;;
72611;SDS011;60655;52.182;4.474;2022-12-29T05:09:59;7.35;;;1.20;;
72611;SDS011;60655;52.182;4.474;2022-12-29T05:12:00;13.93;;;1.48;;
72611;SDS011;60655;52.182;4.474;2022-12-29T05:14:01;15.23;;;1.63;;
72611;SDS011;60655;52.182;4.474;2022-12-29T05:16:02;17.83;;;1.80;;
72611;SDS011;60655;52.182;4.474;2022-12-29T05:18:03;7.80;;;1.13;;
72611;SDS011;60655;52.182;4.474;2022-12-29T05:20:04;10.00;;;1.60;;
72611;SDS011;60655;52.182;4.474;2022-12-29T05:22:06;15.50;;;1.63;;
72611;SDS011;60655;52.182;4.474;2022-12-29T05:24:09;8.80;;;1.50;;
72611;SDS011;60655;52.182;4.474;2022-12-29T05:26:10;14.02;;;1.38;;
72611;SDS011;60655;52.182;4.474;2022-12-29T05:28:11;15.05;;;1.60;;
72611;SDS011;60655;52.182;4.474;2022-12-29T05:30:13;10.35;;;1.73;;
72611;SDS011;60655;52.182;4.474;2022-12-29T05:32:14;15.18;;;1.73;;
72611;SDS011;60655;52.182;4.474;2022-12-29T05:34:15;10.52;;;1.20;;
72611;SDS011;60655;52.182;4.474;2022-12-29T05:36:16;13.40;;;1.80;;
72611;SDS011;60655;52.182;4.474;2022-12-29T05:38:16;14.65;;;1.60;;
72611;SDS011;60655;52.182;4.474;2022-12-29T05:40:19;8.98;;;1.70;;
72611;SDS011;60655;52.182;4.474;2022-12-29T05:42:20;11.90;;;1.40;;
72611;SDS011;60655;52.182;4.474;2022-12-29T05:44:21;7.72;;;1.50;;
72611;SDS011;60655;52.182;4.474;2022-12-29T05:46:22;12.60;;;1.40;;
72611;SDS011;60655;52.182;4.474;2022-12-29T05:48:22;14.27;;;1.75;;
72611;SDS011;60655;52.182;4.474;2022-12-29T05:50:23;12.02;;;1.52;;
72611;SDS011;60655;52.182;4.474;2022-12-29T05:52:24;14.13;;;1.92;;
72611;SDS011;60655;52.182;4.474;2022-12-29T05:54:25;19.10;;;2.25;;
72611;SDS011;60655;52.182;4.474;2022-12-29T05:56:26;13.68;;;1.40;;
72611;SDS011;60655;52.182;4.474;2022-12-29T05:58:27;16.92;;;2.13;;
72611;SDS011;60655;52.182;4.474;2022-12-29T06:00:28;15.10;;;1.83;;
72611;SDS011;60655;52.182;4.474;2022-12-29T06:02:29;11.65;;;1.70;;
72611;SDS011;60655;52.182;4.474;2022-12-29T06:04:30;17.10;;;1.58;;
72611;SDS011;60655;52.182;4.474;2022-12-29T06:06:31;11.52;;;1.90;;
72611;SDS011;60655;52.182;4.474;2022-12-29T06:08:32;10.82;;;1.20;;
72611;SDS011;60655;52.182;4.474;2022-12-29T06:10:33;11.07;;;1.50;;
72611;SDS011;60655;52.182;4.474;2022-12-29T06:12:34;8.13;;;1.23;;
72611;SDS011;60655;52.182;4.474;2022-12-29T06:14:35;11.80;;;1.27;;
72611;SDS011;60655;52.182;4.474;2022-12-29T06:16:36;15.30;;;1.80;;
72611;SDS011;60655;52.182;4.474;2022-12-29T06:18:37;14.55;;;1.35;;
72611;SDS011;60655;52.182;4.474;2022-12-29T06:20:38;10.25;;;1.25;;
72611;SDS011;60655;52.182;4.474;2022-12-29T06:22:39;11.18;;;1.63;;
72611;SDS011;60655;52.182;4.474;2022-12-29T06:24:40;14.93;;;2.25;;
72611;SDS011;60655;52.182;4.474;2022-12-29T06:26:41;11.55;;;1.42;;
72611;SDS011;60655;52.182;4.474;2022-12-29T06:28:42;13.63;;;1.52;;
72611;SDS011;60655;52.182;4.474;2022-12-29T06:30:44;12.52;;;1.52;;
72611;SDS011;60655;52.182;4.474;2022-12-29T06:32:46;12.32;;;2.25;;
72611;SDS011;60655;52.182;4.474;2022-12-29T06:34:47;13.15;;;2.03;;
72611;SDS011;60655;52.182;4.474;2022-12-29T06:36:48;12.77;;;1.65;;
72611;SDS011;60655;52.182;4.474;2022-12-29T06:38:49;17.45;;;2.25;;
72611;SDS011;60655;52.182;4.474;2022-12-29T06:40:52;19.17;;;1.85;;
72611;SDS011;60655;52.182;4.474;2022-12-29T06:42:53;12.77;;;1.70;;
72611;SDS011;60655;52.182;4.474;2022-12-29T06:44:54;18.13;;;2.13;;
72611;SDS011;60655;52.182;4.474;2022-12-29T06:46:59;18.35;;;1.73;;
72611;SDS011;60655;52.182;4.474;2022-12-29T06:48:59;23.55;;;2.50;;
72611;SDS011;60655;52.182;4.474;2022-12-29T06:51:01;20.00;;;2.03;;
72611;SDS011;60655;52.182;4.474;2022-12-29T06:53:01;19.30;;;2.22;;
72611;SDS011;60655;52.182;4.474;2022-12-29T06:55:03;16.25;;;2.10;;
72611;SDS011;60655;52.182;4.474;2022-12-29T06:57:04;18.90;;;2.42;;
72611;SDS011;60655;52.182;4.474;2022-12-29T06:59:05;19.52;;;2.35;;
72611;SDS011;60655;52.182;4.474;2022-12-29T07:01:06;14.55;;;1.90;;
72611;SDS011;60655;52.182;4.474;2022-12-29T07:03:07;27.95;;;2.75;;
72611;SDS011;60655;52.182;4.474;2022-12-29T07:05:08;21.00;;;2.67;;
72611;SDS011;60655;52.182;4.474;2022-12-29T07:07:10;16.17;;;2.10;;
72611;SDS011;60655;52.182;4.474;2022-12-29T07:09:11;17.00;;;2.13;;
72611;SDS011;60655;52.182;4.474;2022-12-29T07:11:12;15.52;;;2.05;;
72611;SDS011;60655;52.182;4.474;2022-12-29T07:13:13;19.98;;;2.25;;
72611;SDS011;60655;52.182;4.474;2022-12-29T07:15:14;12.23;;;2.00;;
72611;SDS011;60655;52.182;4.474;2022-12-29T07:17:15;18.15;;;2.17;;
72611;SDS011;60655;52.182;4.474;2022-12-29T07:19:16;17.92;;;2.47;;
72611;SDS011;60655;52.182;4.474;2022-12-29T07:21:17;13.90;;;2.03;;
72611;SDS011;60655;52.182;4.474;2022-12-29T07:23:19;14.68;;;1.88;;
72611;SDS011;60655;52.182;4.474;2022-12-29T07:25:20;17.85;;;2.33;;
72611;SDS011;60655;52.182;4.474;2022-12-29T07:27:21;20.00;;;2.13;;
72611;SDS011;60655;52.182;4.474;2022-12-29T07:29:22;17.00;;;2.10;;
72611;SDS011;60655;52.182;4.474;2022-12-29T07:31:23;17.70;;;1.45;;
72611;SDS011;60655;52.182;4.474;2022-12-29T07:33:24;19.40;;;1.90;;
72611;SDS011;60655;52.182;4.474;2022-12-29T07:35:25;17.88;;;1.80;;
72611;SDS011;60655;52.182;4.474;2022-12-29T07:37:26;15.90;;;1.75;;
72611;SDS011;60655;52.182;4.474;2022-12-29T07:39:27;11.18;;;2.00;;
72611;SDS011;60655;52.182;4.474;2022-12-29T07:41:28;14.10;;;2.15;;
72611;SDS011;60655;52.182;4.474;2022-12-29T07:43:30;14.32;;;2.05;;
72611;SDS011;60655;52.182;4.474;2022-12-29T07:45:31;20.20;;;1.95;;
72611;SDS011;60655;52.182;4.474;2022-12-29T07:47:31;11.02;;;1.63;;
72611;SDS011;60655;52.182;4.474;2022-12-29T07:49:32;13.25;;;1.40;;
72611;SDS011;60655;52.182;4.474;2022-12-29T07:51:33;15.30;;;1.90;;
72611;SDS011;60655;52.182;4.474;2022-12-29T07:53:34;14.73;;;1.70;;
72611;SDS011;60655;52.182;4.474;2022-12-29T07:55:36;17.88;;;1.98;;
72611;SDS011;60655;52.182;4.474;2022-12-29T07:57:37;21.50;;;2.20;;
72611;SDS011;60655;52.182;4.474;2022-12-29T07:59:38;15.65;;;1.83;;
72611;SDS011;60655;52.182;4.474;2022-12-29T08:01:39;15.05;;;2.17;;
72611;SDS011;60655;52.182;4.474;2022-12-29T08:03:40;15.35;;;1.88;;
72611;SDS011;60655;52.182;4.474;2022-12-29T08:05:42;16.55;;;1.90;;
72611;SDS011;60655;52.182;4.474;2022-12-29T08:07:43;15.95;;;1.60;;
72611;SDS011;60655;52.182;4.474;2022-12-29T08:09:44;13.27;;;1.98;;
72611;SDS011;60655;52.182;4.474;2022-12-29T08:11:45;14.85;;;2.25;;
72611;SDS011;60655;52.182;4.474;2022-12-29T08:13:46;15.27;;;1.85;;
72611;SDS011;60655;52.182;4.474;2022-12-29T08:15:47;14.80;;;2.08;;
72611;SDS011;60655;52.182;4.474;2022-12-29T08:17:48;13.77;;;1.63;;
72611;SDS011;60655;52.182;4.474;2022-12-29T08:19:49;9.48;;;1.42;;
72611;SDS011;60655;52.182;4.474;2022-12-29T08:21:50;13.38;;;1.77;;
72611;SDS011;60655;52.182;4.474;2022-12-29T08:23:51;7.65;;;1.02;;
72611;SDS011;60655;52.182;4.474;2022-12-29T08:25:59;12.90;;;2.05;;
72611;SDS011;60655;52.182;4.474;2022-12-29T08:28:02;15.45;;;2.83;;
72611;SDS011;60655;52.182;4.474;2022-12-29T08:30:04;17.55;;;2.00;;
72611;SDS011;60655;52.182;4.474;2022-12-29T08:32:05;13.00;;;1.60;;
72611;SDS011;60655;52.182;4.474;2022-12-29T08:34:07;14.25;;;1.95;;
72611;SDS011;60655;52.182;4.474;2022-12-29T08:36:08;13.25;;;1.60;;
72611;SDS011;60655;52.182;4.474;2022-12-29T08:38:10;14.98;;;2.08;;
72611;SDS011;60655;52.182;4.474;2022-12-29T08:40:14;14.73;;;1.92;;
72611;SDS011;60655;52.182;4.474;2022-12-29T08:42:16;17.15;;;2.08;;
72611;SDS011;60655;52.182;4.474;2022-12-29T08:44:17;16.10;;;1.63;;
72611;SDS011;60655;52.182;4.474;2022-12-29T08:46:18;16.30;;;1.95;;
72611;SDS011;60655;52.182;4.474;2022-12-29T08:48:19;18.90;;;2.55;;
72611;SDS011;60655;52.182;4.474;2022-12-29T08:50:22;15.82;;;2.08;;
72611;SDS011;60655;52.182;4.474;2022-12-29T08:52:23;14.40;;;2.13;;
72611;SDS011;60655;52.182;4.474;2022-12-29T08:54:24;10.07;;;1.73;;
72611;SDS011;60655;52.182;4.474;2022-12-29T08:56:26;14.00;;;1.98;;
72611;SDS011;60655;52.182;4.474;2022-12-29T08:58:28;11.93;;;2.05;;
72611;SDS011;60655;52.182;4.474;2022-12-29T09:00:29;14.95;;;2.20;;
72611;SDS011;60655;52.182;4.474;2022-12-29T09:02:30;15.85;;;1.83;;
72611;SDS011;60655;52.182;4.474;2022-12-29T09:04:31;20.23;;;2.88;;
72611;SDS011;60655;52.182;4.474;2022-12-29T09:06:32;14.60;;;1.85;;
72611;SDS011;60655;52.182;4.474;2022-12-29T09:08:33;16.00;;;2.40;;
72611;SDS011;60655;52.182;4.474;2022-12-29T09:10:34;18.30;;;1.80;;
72611;SDS011;60655;52.182;4.474;2022-12-29T09:12:35;16.25;;;2.13;;
72611;SDS011;60655;52.182;4.474;2022-12-29T09:14:36;16.25;;;2.13;;
72611;SDS011;60655;52.182;4.474;2022-12-29T09:16:37;13.95;;;1.88;;
72611;SDS011;60655;52.182;4.474;2022-12-29T09:18:38;20.80;;;2.20;;
72611;SDS011;60655;52.182;4.474;2022-12-29T09:20:40;16.20;;;2.28;;
72611;SDS011;60655;52.182;4.474;2022-12-29T09:22:42;19.52;;;2.20;;
72611;SDS011;60655;52.182;4.474;2022-12-29T09:24:44;16.42;;;2.53;;
72611;SDS011;60655;52.182;4.474;2022-12-29T09:26:45;25.52;;;2.83;;
72611;SDS011;60655;52.182;4.474;2022-12-29T09:28:46;18.85;;;2.08;;
72611;SDS011;60655;52.182;4.474;2022-12-29T09:30:47;21.27;;;3.10;;
72611;SDS011;60655;52.182;4.474;2022-12-29T09:32:49;15.45;;;2.58;;
72611;SDS011;60655;52.182;4.474;2022-12-29T09:34:50;18.90;;;2.58;;
72611;SDS011;60655;52.182;4.474;2022-12-29T09:36:51;18.05;;;2.08;;
72611;SDS011;60655;52.182;4.474;2022-12-29T09:38:52;19.63;;;2.42;;
72611;SDS011;60655;52.182;4.474;2022-12-29T09:45:20;22.83;;;2.70;;
72611;SDS011;60655;52.182;4.474;2022-12-29T09:47:29;22.30;;;2.28;;
72611;SDS011;60655;52.182;4.474;2022-12-29T09:49:40;20.85;;;3.40;;
72611;SDS011;60655;52.182;4.474;2022-12-29T09:51:45;23.25;;;2.42;;
72611;SDS011;60655;52.182;4.474;2022-12-29T09:53:57;26.00;;;3.53;;
72611;SDS011;60655;52.182;4.474;2022-12-29T09:56:01;22.95;;;2.70;;
72611;SDS011;60655;52.182;4.474;2022-12-29T09:58:14;25.75;;;3.67;;
72611;SDS011;60655;52.182;4.474;2022-12-29T10:00:40;24.80;;;2.90;;
72611;SDS011;60655;52.182;4.474;2022-12-29T10:02:51;22.73;;;3.15;;
72611;SDS011;60655;52.182;4.474;2022-12-29T10:04:58;22.35;;;3.13;;
72611;SDS011;60655;52.182;4.474;2022-12-29T10:07:23;29.35;;;3.33;;
72611;SDS011;60655;52.182;4.474;2022-12-29T10:09:42;27.75;;;3.28;;
72611;SDS011;60655;52.182;4.474;2022-12-29T10:19:11;24.98;;;3.22;;
72611;SDS011;60655;52.182;4.474;2022-12-29T10:23:51;27.55;;;2.65;;
72611;SDS011;60655;52.182;4.474;2022-12-29T10:25:55;25.60;;;2.50;;
72611;SDS011;60655;52.182;4.474;2022-12-29T10:27:58;23.80;;;3.17;;
72611;SDS011;60655;52.182;4.474;2022-12-29T10:30:03;23.95;;;2.83;;
72611;SDS011;60655;52.182;4.474;2022-12-29T10:34:41;22.05;;;3.05;;
72611;SDS011;60655;52.182;4.474;2022-12-29T10:36:49;31.92;;;3.45;;
72611;SDS011;60655;52.182;4.474;2022-12-29T10:38:58;24.00;;;2.55;;
72611;SDS011;60655;52.182;4.474;2022-12-29T10:43:32;22.45;;;2.58;;
72611;SDS011;60655;52.182;4.474;2022-12-29T10:45:38;17.63;;;2.28;;
72611;SDS011;60655;52.182;4.474;2022-12-29T10:47:52;22.30;;;2.75;;
72611;SDS011;60655;52.182;4.474;2022-12-29T10:49:58;21.70;;;2.33;;
72611;SDS011;60655;52.182;4.474;2022-12-29T10:52:02;19.92;;;2.70;;
72611;SDS011;60655;52.182;4.474;2022-12-29T10:54:05;18.52;;;1.88;;
72611;SDS011;60655;52.182;4.474;2022-12-29T10:56:27;17.70;;;3.70;;
72611;SDS011;60655;52.182;4.474;2022-12-29T10:58:32;21.35;;;3.35;;
72611;SDS011;60655;52.182;4.474;2022-12-29T11:00:33;29.92;;;8.25;;
72611;SDS011;60655;52.182;4.474;2022-12-29T11:07:00;15.00;;;2.25;;
72611;SDS011;60655;52.182;4.474;2022-12-29T11:09:08;10.15;;;1.25;;
72611;SDS011;60655;52.182;4.474;2022-12-29T11:11:16;14.35;;;1.63;;
72611;SDS011;60655;52.182;4.474;2022-12-29T11:13:29;15.52;;;1.90;;
72611;SDS011;60655;52.182;4.474;2022-12-29T11:15:47;16.02;;;1.92;;
72611;SDS011;60655;52.182;4.474;2022-12-29T11:17:53;11.80;;;1.95;;
72611;SDS011;60655;52.182;4.474;2022-12-29T11:19:57;16.45;;;1.88;;
72611;SDS011;60655;52.182;4.474;2022-12-29T11:24:24;14.82;;;2.25;;
72611;SDS011;60655;52.182;4.474;2022-12-29T11:26:27;16.55;;;1.85;;
72611;SDS011;60655;52.182;4.474;2022-12-29T11:28:29;16.58;;;2.33;;
72611;SDS011;60655;52.182;4.474;2022-12-29T11:30:32;17.83;;;2.30;;
72611;SDS011;60655;52.182;4.474;2022-12-29T11:32:33;14.95;;;2.40;;
72611;SDS011;60655;52.182;4.474;2022-12-29T11:34:34;17.13;;;2.17;;
72611;SDS011;60655;52.182;4.474;2022-12-29T11:36:36;15.43;;;2.03;;
72611;SDS011;60655;52.182;4.474;2022-12-29T11:38:39;14.32;;;1.63;;
72611;SDS011;60655;52.182;4.474;2022-12-29T11:40:43;9.07;;;1.33;;
72611;SDS011;60655;52.182;4.474;2022-12-29T11:44:58;11.75;;;1.52;;
72611;SDS011;60655;52.182;4.474;2022-12-29T11:47:06;10.68;;;1.27;;
72611;SDS011;60655;52.182;4.474;2022-12-29T11:49:19;10.57;;;1.73;;
72611;SDS011;60655;52.182;4.474;2022-12-29T11:51:23;10.23;;;1.13;;
72611;SDS011;60655;52.182;4.474;2022-12-29T11:53:28;12.18;;;1.52;;
72611;SDS011;60655;52.182;4.474;2022-12-29T11:55:36;12.73;;;1.52;;
72611;SDS011;60655;52.182;4.474;2022-12-29T11:57:38;13.25;;;1.58;;
72611;SDS011;60655;52.182;4.474;2022-12-29T11:59:43;14.27;;;1.88;;
72611;SDS011;60655;52.182;4.474;2022-12-29T12:01:50;14.85;;;2.15;;
72611;SDS011;60655;52.182;4.474;2022-12-29T12:06:01;12.52;;;2.00;;
72611;SDS011;60655;52.182;4.474;2022-12-29T12:10:25;11.68;;;1.58;;
72611;SDS011;60655;52.182;4.474;2022-12-29T12:12:43;10.40;;;1.50;;
72611;SDS011;60655;52.182;4.474;2022-12-29T12:14:54;8.85;;;1.20;;
72611;SDS011;60655;52.182;4.474;2022-12-29T12:17:02;12.38;;;1.35;;
72611;SDS011;60655;52.182;4.474;2022-12-29T12:19:47;10.07;;;1.52;;
72611;SDS011;60655;52.182;4.474;2022-12-29T12:21:57;7.22;;;1.30;;
72611;SDS011;60655;52.182;4.474;2022-12-29T12:24:11;10.90;;;1.10;;
72611;SDS011;60655;52.182;4.474;2022-12-29T12:26:19;15.23;;;1.80;;
72611;SDS011;60655;52.182;4.474;2022-12-29T12:30:52;11.95;;;1.35;;
72611;SDS011;60655;52.182;4.474;2022-12-29T12:33:02;10.82;;;1.40;;
72611;SDS011;60655;52.182;4.474;2022-12-29T12:35:07;14.38;;;1.40;;
72611;SDS011;60655;52.182;4.474;2022-12-29T12:39:31;20.02;;;1.65;;
72611;SDS011;60655;52.182;4.474;2022-12-29T12:44:01;18.10;;;1.60;;
72611;SDS011;60655;52.182;4.474;2022-12-29T12:48:56;14.05;;;1.90;;
72611;SDS011;60655;52.182;4.474;2022-12-29T12:51:21;9.52;;;1.45;;
72611;SDS011;60655;52.182;4.474;2022-12-29T12:56:11;10.23;;;1.63;;
72611;SDS011;60655;52.182;4.474;2022-12-29T13:05:30;16.70;;;1.80;;
72611;SDS011;60655;52.182;4.474;2022-12-29T13:07:40;14.32;;;1.70;;
72611;SDS011;60655;52.182;4.474;2022-12-29T13:12:32;11.23;;;1.35;;
72611;SDS011;60655;52.182;4.474;2022-12-29T13:14:49;13.10;;;1.48;;
72611;SDS011;60655;52.182;4.474;2022-12-29T13:17:41;10.93;;;1.23;;
72611;SDS011;60655;52.182;4.474;2022-12-29T13:21:56;10.77;;;1.20;;
72611;SDS011;60655;52.182;4.474;2022-12-29T13:26:22;12.00;;;1.10;;
72611;SDS011;60655;52.182;4.474;2022-12-29T13:30:45;14.80;;;1.70;;
72611;SDS011;60655;52.182;4.474;2022-12-29T13:35:22;12.50;;;1.48;;
72611;SDS011;60655;52.182;4.474;2022-12-29T13:37:31;9.65;;;1.70;;
72611;SDS011;60655;52.182;4.474;2022-12-29T13:39:46;10.50;;;1.20;;
72611;SDS011;60655;52.182;4.474;2022-12-29T13:41:53;14.10;;;1.42;;
72611;SDS011;60655;52.182;4.474;2022-12-29T13:43:55;19.02;;;2.03;;
72611;SDS011;60655;52.182;4.474;2022-12-29T13:46:01;13.63;;;2.17;;
72611;SDS011;60655;52.182;4.474;2022-12-29T13:48:24;15.27;;;2.17;;
72611;SDS011;60655;52.182;4.474;2022-12-29T13:50:36;13.02;;;2.00;;
72611;SDS011;60655;52.182;4.474;2022-12-29T13:52:51;14.18;;;2.30;;
72611;SDS011;60655;52.182;4.474;2022-12-29T13:55:18;10.80;;;1.83;;
72611;SDS011;60655;52.182;4.474;2022-12-29T13:59:50;15.93;;;1.75;;
72611;SDS011;60655;52.182;4.474;2022-12-29T14:02:01;14.02;;;1.90;;
72611;SDS011;60655;52.182;4.474;2022-12-29T14:04:11;15.00;;;1.85;;
72611;SDS011;60655;52.182;4.474;2022-12-29T14:08:45;13.07;;;1.55;;
72611;SDS011;60655;52.182;4.474;2022-12-29T14:10:48;9.60;;;1.67;;
72611;SDS011;60655;52.182;4.474;2022-12-29T14:12:53;16.67;;;2.20;;